Time;durP1;ratioP1;P1;durP2;ratioP2;P2;SDS_P1;SDS_P2;PMS_P1;PMS_P2;Temp;Humidity;BMP_temperature;BMP_pressure;BME280_temperature;BME280_humidity;BME280_pressure;Samples;Min_cycle;Max_cycle;Signal;HPM_P1;HPM_P2
2023/07/16 00:08:18;;;;;;;1999.90;999.90;;;;;;;;;;6728982;88;20186;-78
2023/07/16 00:18:19;;;;;;;1999.90;999.90;;;;;;;;;;6735311;88;20745;-79
2023/07/16 00:28:20;;;;;;;1999.90;999.90;;;;;;;;;;6734013;88;20239;-78
2023/07/16 00:38:21;;;;;;;1999.90;999.90;;;;;;;;;;6731210;88;20666;-80
2023/07/16 00:48:22;;;;;;;1999.90;999.90;;;;;;;;;;6723301;88;20198;-78
2023/07/16 00:58:23;;;;;;;1999.90;999.90;;;;;;;;;;6731345;77;20236;-78
2023/07/16 01:08:41;;;;;;;1999.90;999.90;;;;;;;;;;6717167;88;20358;-79
2023/07/16 01:18:42;;;;;;;1999.90;999.90;;;;;;;;;;6705673;88;20520;-79
2023/07/16 01:28:55;;;;;;;1999.90;999.90;;;;;;;;;;6712124;88;20199;-79
2023/07/16 01:38:56;;;;;;;1999.90;999.90;;;;;;;;;;6700127;88;20202;-78
2023/07/16 01:48:57;;;;;;;1999.90;999.90;;;;;;;;;;6709078;88;20582;-78
2023/07/16 01:58:57;;;;;;;1999.90;999.90;;;;;;;;;;6702749;88;20203;-78
2023/07/16 02:08:58;;;;;;;1999.90;999.90;;;;;;;;;;6718367;88;20407;-78
2023/07/16 02:19:02;;;;;;;1999.90;999.90;;;;;;;;;;6706699;88;20570;-79
2023/07/16 02:29:03;;;;;;;1999.90;999.90;;;;;;;;;;6708325;88;20263;-77
2023/07/16 02:39:04;;;;;;;1999.90;999.90;;;;;;;;;;6713052;88;20210;-78
2023/07/16 02:49:05;;;;;;;1999.90;999.90;;;;;;;;;;6707392;88;20320;-77
2023/07/16 02:59:06;;;;;;;1999.90;999.90;;;;;;;;;;6693969;88;20252;-78
2023/07/16 03:09:07;;;;;;;1999.90;999.90;;;;;;;;;;6692974;88;20759;-78
2023/07/16 03:19:08;;;;;;;1999.90;999.90;;;;;;;;;;6705332;88;20187;-77
2023/07/16 03:29:09;;;;;;;1999.90;999.90;;;;;;;;;;6699680;88;20239;-77
2023/07/16 03:39:10;;;;;;;1999.90;999.90;;;;;;;;;;6685638;88;20191;-78
2023/07/16 03:49:11;;;;;;;1999.90;999.90;;;;;;;;;;6683656;88;20275;-77
2023/07/16 03:59:12;;;;;;;1999.90;999.90;;;;;;;;;;6691077;88;20211;-78
2023/07/16 04:09:13;;;;;;;1999.90;999.90;;;;;;;;;;6685694;88;20709;-78
2023/07/16 04:19:15;;;;;;;1999.90;999.90;;;;;;;;;;6705980;88;20592;-78
2023/07/16 04:29:15;;;;;;;1999.90;999.90;;;;;;;;;;6687600;88;20287;-78
2023/07/16 04:39:17;;;;;;;1999.90;999.90;;;;;;;;;;6692019;88;20326;-78
2023/07/16 04:49:17;;;;;;;1999.90;999.90;;;;;;;;;;6708930;88;20185;-77
2023/07/16 04:59:18;;;;;;;1999.90;999.90;;;;;;;;;;6718365;88;20283;-77
2023/07/16 05:09:20;;;;;;;1999.90;999.90;;;;;;;;;;6717931;88;20210;-78
2023/07/16 05:19:21;;;;;;;1999.90;999.90;;;;;;;;;;6717770;88;20355;-78
2023/07/16 05:29:22;;;;;;;1999.90;999.90;;;;;;;;;;6703056;88;20201;-78
2023/07/16 05:39:23;;;;;;;1999.90;999.90;;;;;;;;;;6698959;88;20213;-78
2023/07/16 05:49:25;;;;;;;1999.90;999.90;;;;;;;;;;6701351;88;20266;-78
2023/07/16 05:59:26;;;;;;;1999.90;999.90;;;;;;;;;;6707132;88;20202;-78
2023/07/16 06:09:27;;;;;;;1999.90;999.90;;;;;;;;;;6715293;88;20672;-78
2023/07/16 06:19:28;;;;;;;1999.90;999.90;;;;;;;;;;6708226;88;20337;-78
2023/07/16 06:29:29;;;;;;;1999.90;999.90;;;;;;;;;;6710292;88;20195;-78
2023/07/16 06:39:31;;;;;;;1999.90;999.90;;;;;;;;;;6704224;88;20304;-78
2023/07/16 06:49:32;;;;;;;1999.90;999.90;;;;;;;;;;6715670;88;20657;-79
2023/07/16 06:59:33;;;;;;;1999.90;999.90;;;;;;;;;;6699478;77;20209;-76
2023/07/16 07:09:34;;;;;;;1999.90;999.90;;;;;;;;;;6692431;88;20216;-76
2023/07/16 07:19:35;;;;;;;1999.90;999.90;;;;;;;;;;6695406;88;20193;-75
2023/07/16 07:29:36;;;;;;;1999.90;999.90;;;;;;;;;;6697967;88;20638;-75
2023/07/16 07:39:37;;;;;;;1999.90;999.90;;;;;;;;;;6698053;88;20211;-75
2023/07/16 07:49:38;;;;;;;1999.90;999.90;;;;;;;;;;6697938;88;20222;-76
2023/07/16 07:59:39;;;;;;;1999.90;999.90;;;;;;;;;;6699073;88;20202;-76
2023/07/16 08:09:40;;;;;;;1999.90;999.90;;;;;;;;;;6693547;88;20275;-76
2023/07/16 08:19:41;;;;;;;1999.90;999.90;;;;;;;;;;6696625;88;20227;-76
2023/07/16 08:29:42;;;;;;;1999.90;999.90;;;;;;;;;;6701649;88;20201;-75
2023/07/16 08:39:43;;;;;;;1999.90;999.90;;;;;;;;;;6692286;88;20823;-76
2023/07/16 08:49:51;;;;;;;1999.90;999.90;;;;;;;;;;6700111;88;20383;-76
2023/07/16 08:59:52;;;;;;;1999.90;999.90;;;;;;;;;;6700921;88;20744;-76
2023/07/16 09:09:59;;;;;;;1999.90;999.90;;;;;;;;;;6699440;88;20194;-77
2023/07/16 09:20:03;;;;;;;1999.90;999.90;;;;;;;;;;6696642;88;20573;-77
2023/07/16 09:30:05;;;;;;;1999.90;999.90;;;;;;;;;;6693900;88;21076;-77
2023/07/16 09:40:09;;;;;;;1999.90;999.90;;;;;;;;;;6701436;88;20211;-77
2023/07/16 09:50:11;;;;;;;1999.90;999.90;;;;;;;;;;6696235;88;20527;-78
2023/07/16 10:00:13;;;;;;;1999.90;999.90;;;;;;;;;;6701028;88;20197;-77
2023/07/16 10:10:17;;;;;;;1999.90;999.90;;;;;;;;;;6701236;88;20694;-77
2023/07/16 10:20:28;;;;;;;1999.90;999.90;;;;;;;;;;6691352;88;20215;-76
2023/07/16 10:30:29;;;;;;;1999.90;999.90;;;;;;;;;;6700397;88;20247;-78
2023/07/16 10:40:30;;;;;;;1999.90;999.90;;;;;;;;;;6696857;88;20415;-78
2023/07/16 10:50:34;;;;;;;1999.90;999.90;;;;;;;;;;6702763;88;20316;-77
2023/07/16 11:00:39;;;;;;;1999.90;999.90;;;;;;;;;;6706804;88;20194;-77
2023/07/16 11:10:40;;;;;;;1999.90;999.90;;;;;;;;;;6696671;88;20362;-76
2023/07/16 11:20:41;;;;;;;1999.90;999.90;;;;;;;;;;6696750;88;20187;-77
2023/07/16 11:30:42;;;;;;;1999.90;999.90;;;;;;;;;;6708877;88;20214;-79
2023/07/16 11:40:43;;;;;;;1999.90;999.90;;;;;;;;;;6707517;88;20178;-77
2023/07/16 11:50:45;;;;;;;1999.90;999.90;;;;;;;;;;6700711;88;20216;-77
2023/07/16 12:00:46;;;;;;;1999.90;999.90;;;;;;;;;;6704313;88;20198;-77
2023/07/16 12:10:47;;;;;;;1999.90;999.90;;;;;;;;;;6696330;88;20742;-78
2023/07/16 12:20:48;;;;;;;1999.90;999.90;;;;;;;;;;6694451;88;20742;-77
2023/07/16 12:30:49;;;;;;;1999.90;999.90;;;;;;;;;;6711335;88;20463;-77
2023/07/16 12:40:50;;;;;;;1999.90;999.90;;;;;;;;;;6713446;88;20210;-77
2023/07/16 12:50:52;;;;;;;1999.90;999.90;;;;;;;;;;6700427;88;20178;-76
2023/07/16 13:11:55;;;;;;;1999.90;999.90;;;;;;;;;;6661956;89;20204;-81
2023/07/16 13:21:56;;;;;;;1999.90;999.90;;;;;;;;;;6619815;89;20710;-80
2023/07/16 13:31:57;;;;;;;1999.90;999.90;;;;;;;;;;6621304;89;20203;-80
2023/07/16 13:41:58;;;;;;;1999.90;999.90;;;;;;;;;;6629994;89;20190;-80
2023/07/16 13:51:59;;;;;;;1999.90;999.90;;;;;;;;;;6637374;89;20680;-82
2023/07/16 14:02:00;;;;;;;1999.90;999.90;;;;;;;;;;6627722;89;20202;-80
2023/07/16 14:12:01;;;;;;;1999.90;999.90;;;;;;;;;;6624370;89;20200;-81
2023/07/16 14:22:02;;;;;;;1999.90;999.90;;;;;;;;;;6638305;89;20198;-81
2023/07/16 14:32:04;;;;;;;1999.90;999.90;;;;;;;;;;6636994;89;21036;-81
2023/07/16 14:42:05;;;;;;;1999.90;999.90;;;;;;;;;;6636031;89;20664;-82
2023/07/16 14:52:06;;;;;;;1999.90;999.90;;;;;;;;;;6656855;89;20215;-81
2023/07/16 15:02:07;;;;;;;1999.90;999.90;;;;;;;;;;6640568;89;20201;-81
2023/07/16 15:12:08;;;;;;;1999.90;999.90;;;;;;;;;;6633779;89;20693;-81
2023/07/16 15:22:09;;;;;;;1999.90;999.90;;;;;;;;;;6634604;89;20201;-81
2023/07/16 15:32:10;;;;;;;1999.90;999.90;;;;;;;;;;6636324;89;20205;-81
2023/07/16 15:42:11;;;;;;;1999.90;999.90;;;;;;;;;;6649272;89;20186;-81
2023/07/16 15:52:12;;;;;;;1999.90;999.90;;;;;;;;;;6637728;89;20205;-80
2023/07/16 16:02:13;;;;;;;1999.90;999.90;;;;;;;;;;6636235;89;20608;-80
2023/07/16 16:12:15;;;;;;;1999.90;999.90;;;;;;;;;;6628427;89;20243;-80
2023/07/16 16:22:15;;;;;;;1999.90;999.90;;;;;;;;;;6647056;88;20198;-80
2023/07/16 16:32:16;;;;;;;1999.90;999.90;;;;;;;;;;6633703;89;20206;-80
2023/07/16 16:42:18;;;;;;;1999.90;999.90;;;;;;;;;;6646078;89;20231;-81
2023/07/16 16:52:19;;;;;;;1999.90;999.90;;;;;;;;;;6627318;89;20241;-81
2023/07/16 17:02:20;;;;;;;1999.90;999.90;;;;;;;;;;6635070;89;20319;-81
2023/07/16 17:12:22;;;;;;;1999.90;999.90;;;;;;;;;;6645070;89;20692;-81
2023/07/16 17:22:25;;;;;;;1999.90;999.90;;;;;;;;;;6632246;89;20613;-79
2023/07/16 17:32:26;;;;;;;1999.90;999.90;;;;;;;;;;6633530;89;20228;-79
2023/07/16 17:42:27;;;;;;;1999.90;999.90;;;;;;;;;;6619044;89;20193;-79
2023/07/16 17:52:28;;;;;;;1999.90;999.90;;;;;;;;;;6639335;89;20590;-80
2023/07/16 18:02:29;;;;;;;1999.90;999.90;;;;;;;;;;6645102;89;20619;-80
2023/07/16 18:12:30;;;;;;;1999.90;999.90;;;;;;;;;;6629810;89;20203;-81
2023/07/16 18:22:31;;;;;;;1999.90;999.90;;;;;;;;;;6634638;89;20194;-80
2023/07/16 18:32:32;;;;;;;1999.90;999.90;;;;;;;;;;6651791;88;20201;-81
2023/07/16 18:42:33;;;;;;;1999.90;999.90;;;;;;;;;;6646820;89;20867;-79
2023/07/16 18:52:34;;;;;;;1999.90;999.90;;;;;;;;;;6634671;89;20264;-81
2023/07/16 19:02:56;;;;;;;1999.90;999.90;;;;;;;;;;6650933;77;20214;-79
2023/07/16 19:12:57;;;;;;;1999.90;999.90;;;;;;;;;;6605543;89;20305;-79
2023/07/16 19:22:58;;;;;;;1999.90;999.90;;;;;;;;;;6587505;89;20203;-80
2023/07/16 19:33:01;;;;;;;1999.90;999.90;;;;;;;;;;6588283;89;20186;-80
2023/07/16 19:43:02;;;;;;;1999.90;999.90;;;;;;;;;;6595140;89;20198;-79
2023/07/16 19:53:03;;;;;;;1999.90;999.90;;;;;;;;;;6604555;89;20409;-79
2023/07/16 20:03:05;;;;;;;1999.90;999.90;;;;;;;;;;6619370;88;20342;-81
2023/07/16 20:13:07;;;;;;;1999.90;999.90;;;;;;;;;;6617305;88;20245;-78
2023/07/16 20:23:11;;;;;;;1999.90;999.90;;;;;;;;;;6616821;88;20369;-79
2023/07/16 20:33:13;;;;;;;1999.90;999.90;;;;;;;;;;6618107;88;20189;-79
2023/07/16 20:43:17;;;;;;;1999.90;999.90;;;;;;;;;;6620187;88;20238;-79
2023/07/16 20:53:18;;;;;;;1999.90;999.90;;;;;;;;;;6586110;89;20716;-79
2023/07/16 21:03:19;;;;;;;1999.90;999.90;;;;;;;;;;6587251;89;20223;-79
2023/07/16 21:13:20;;;;;;;1999.90;999.90;;;;;;;;;;6586999;89;20609;-79
2023/07/16 21:23:23;;;;;;;1999.90;999.90;;;;;;;;;;6585769;89;20232;-79
2023/07/16 21:33:24;;;;;;;1999.90;999.90;;;;;;;;;;6585484;89;20348;-80
2023/07/16 21:43:25;;;;;;;1999.90;999.90;;;;;;;;;;6598310;88;20182;-78
2023/07/16 21:53:26;;;;;;;1999.90;999.90;;;;;;;;;;6604567;89;20206;-77
2023/07/16 22:03:27;;;;;;;1999.90;999.90;;;;;;;;;;6603894;89;20198;-78
2023/07/16 22:13:28;;;;;;;1999.90;999.90;;;;;;;;;;6601318;89;20344;-78
2023/07/16 22:23:29;;;;;;;1999.90;999.90;;;;;;;;;;6599573;89;20202;-78
2023/07/16 22:33:30;;;;;;;1999.90;999.90;;;;;;;;;;6598375;89;20191;-78
2023/07/16 22:43:31;;;;;;;1999.90;999.90;;;;;;;;;;6600344;89;20250;-77
2023/07/16 22:53:40;;;;;;;1999.90;999.90;;;;;;;;;;6598939;89;20202;-78
2023/07/16 23:03:41;;;;;;;1999.90;999.90;;;;;;;;;;6597687;89;20290;-79
2023/07/16 23:13:42;;;;;;;1999.90;999.90;;;;;;;;;;6600333;89;20602;-78
2023/07/16 23:23:43;;;;;;;1999.90;999.90;;;19.70;95.00;;;;;;6604544;89;20634;-78
2023/07/16 23:33:44;;;;;;;1999.90;999.90;;;;;;;;;;6604294;90;20871;-80
2023/07/16 23:43:45;;;;;;;1999.90;999.90;;;;;;;;;;6602667;89;20571;-76
2023/07/16 23:53:46;;;;;;;1999.90;999.90;;;;;;;;;;6605194;89;20989;-78
